Time;durP1;ratioP1;P1;durP2;ratioP2;P2;SDS_P1;SDS_P2;PMS_P1;PMS_P2;Temp;Humidity;BMP_temperature;BMP_pressure;BME280_temperature;BME280_humidity;BME280_pressure;Samples;Min_cycle;Max_cycle;Signal;HPM_P1;HPM_P2
2022/11/18 00:01:05;;;;;;;5.05;1.35;;;;;;;;;;5034192;28;20060;-72
2022/11/18 00:03:31;;;;;;;2.22;0.98;;;;;;;;;;5033772;28;20049;-70
2022/11/18 00:05:58;;;;;;;6.88;1.30;;;;;;;;;;5032418;28;20042;-70
2022/11/18 00:08:24;;;;;;;3.08;1.00;;;;;;;;;;5013663;28;20124;-68
2022/11/18 00:10:51;;;;;;;4.65;1.23;;;;;;;;;;5013866;28;20049;-68
2022/11/18 00:16:05;;;;;;;5.90;0.90;;;;;;;;;;5022718;28;20489;-70
2022/11/18 00:18:31;;;;;;;2.67;0.90;;;;;;;;;;5033374;28;20081;-70
2022/11/18 00:21:05;;;;;;;4.18;1.40;;;;;;;;;;5023188;28;20129;-70
2022/11/18 00:23:32;;;;;;;7.93;1.52;;;;;;;;;;5018591;28;20056;-70
2022/11/18 00:26:02;;;;;;;5.63;1.52;;;;;;;;;;5031246;28;20051;-71
2022/11/18 00:28:29;;;;;;;3.50;1.08;;;;;;;;;;5033540;28;20484;-72
2022/11/18 00:31:14;;;;;;;4.20;1.27;;;;;;;;;;5032773;28;20072;-72
2022/11/18 00:33:40;;;;;;;3.72;0.95;;;;;;;;;;5033778;28;20056;-70
2022/11/18 00:36:08;;;;;;;3.70;1.27;;;;;;;;;;5033359;28;20497;-70
2022/11/18 00:38:34;;;;;;;3.80;1.15;;;;;;;;;;5033756;28;20049;-70
2022/11/18 00:41:09;;;;;;;3.30;1.08;;;;;;;;;;5033546;28;20075;-70
2022/11/18 00:43:35;;;;;;;2.65;0.95;;;;;;;;;;5034143;28;20140;-70
2022/11/18 00:46:02;;;;;;;6.75;1.23;;;;;;;;;;5033517;28;20137;-70
2022/11/18 00:48:29;;;;;;;5.35;1.15;;;;;;;;;;5033684;28;20051;-70
2022/11/18 00:50:56;;;;;;;3.90;1.15;;;;;;;;;;5033541;28;20130;-70
2022/11/18 00:53:24;;;;;;;4.35;1.27;;;;;;;;;;5033584;28;20088;-72
2022/11/18 00:55:51;;;;;;;5.28;1.10;;;;;;;;;;5032086;28;20059;-72
2022/11/18 00:58:18;;;;;;;6.70;1.35;;;;;;;;;;5033046;28;20050;-72
2022/11/18 01:00:47;;;;;;;2.95;1.00;;;;;;;;;;5033449;28;20099;-70
2022/11/18 01:03:13;;;;;;;4.82;1.48;;;;;;;;;;5033248;28;20120;-70
2022/11/18 01:05:40;;;;;;;6.15;1.67;;;;;;;;;;5033316;28;20133;-70
2022/11/18 01:08:07;;;;;;;6.03;1.73;;;;;;;;;;5033257;28;20401;-70
2022/11/18 01:10:34;;;;;;;5.95;1.58;;;;;;;;;;5033211;28;20059;-70
2022/11/18 01:13:18;;;;;;;3.30;1.50;;;;;;;;;;5032731;28;20505;-70
2022/11/18 01:15:49;;;;;;;3.80;1.35;;;;;;;;;;5031730;28;20092;-70
2022/11/18 01:18:16;;;;;;;4.85;1.98;;;;;;;;;;5033476;28;20061;-70
2022/11/18 01:20:44;;;;;;;4.97;1.87;;;;;;;;;;5031933;28;20045;-70
2022/11/18 01:23:10;;;;;;;5.47;1.85;;;;;;;;;;5032653;28;20084;-70
2022/11/18 01:25:37;;;;;;;6.15;1.30;;;;;;;;;;5032580;28;20482;-70
2022/11/18 01:28:04;;;;;;;5.63;1.42;;;;;;;;;;5032770;28;20049;-70
2022/11/18 01:30:34;;;;;;;4.55;1.55;;;;;;;;;;5032531;28;20052;-70
2022/11/18 01:33:02;;;;;;;4.28;1.98;;;;;;;;;;5032767;28;20125;-70
2022/11/18 01:35:33;;;;;;;4.50;1.40;;;;;;;;;;5032770;28;20425;-70
2022/11/18 01:37:59;;;;;;;2.97;1.40;;;;;;;;;;5032301;28;20664;-70
2022/11/18 01:40:26;;;;;;;4.25;1.33;;;;;;;;;;5032372;28;20085;-70
2022/11/18 01:42:52;;;;;;;5.55;1.73;;;;;;;;;;5032280;28;20132;-70
2022/11/18 01:45:30;;;;;;;5.80;1.73;;;;;;;;;;5032445;28;20089;-70
2022/11/18 01:48:05;;;;;;;2.53;1.38;;;;;;;;;;5032221;28;20042;-70
2022/11/18 01:50:33;;;;;;;5.50;1.60;;;;;;;;;;5032351;28;20076;-70
2022/11/18 01:53:03;;;;;;;4.78;2.28;;;;;;;;;;5032641;28;20046;-70
2022/11/18 01:55:31;;;;;;;2.83;1.67;;;;;;;;;;5032278;28;20573;-70
2022/11/18 01:58:04;;;;;;;4.07;1.48;;;;;;;;;;5032014;28;20501;-70
2022/11/18 02:00:31;;;;;;;4.40;2.33;;;;;;;;;;5032143;28;20049;-70
2022/11/18 02:02:58;;;;;;;3.78;2.40;;;;;;;;;;5031866;28;20048;-70
2022/11/18 02:05:25;;;;;;;6.05;2.30;;;;;;;;;;5032150;28;20140;-70
2022/11/18 02:07:51;;;;;;;5.78;2.10;;;;;;;;;;5032088;28;20464;-70
2022/11/18 02:10:20;;;;;;;7.53;2.08;;;;;;;;;;5031904;28;20060;-70
2022/11/18 02:12:47;;;;;;;4.60;2.13;;;;;;;;;;5025267;28;20077;-69
2022/11/18 02:15:13;;;;;;;4.45;1.90;;;;;;;;;;5031822;28;20129;-72
2022/11/18 02:18:15;;;;;;;4.18;1.45;;;;;;;;;;5032096;28;20499;-72
2022/11/18 02:20:43;;;;;;;4.97;1.90;;;;;;;;;;5023905;28;20136;-72
2022/11/18 02:23:12;;;;;;;7.10;1.40;;;;;;;;;;5025741;28;20473;-72
2022/11/18 02:25:46;;;;;;;5.70;1.55;;;;;;;;;;5031494;28;20503;-72
2022/11/18 02:28:22;;;;;;;7.18;1.70;;;;;;;;;;5031634;28;20053;-72
2022/11/18 02:30:52;;;;;;;6.78;2.05;;;;;;;;;;5030105;28;20076;-72
2022/11/18 02:33:23;;;;;;;4.68;1.80;;;;;;;;;;5031643;28;20515;-72
2022/11/18 02:35:59;;;;;;;7.40;2.22;;;;;;;;;;5031609;28;20084;-72
2022/11/18 02:38:30;;;;;;;5.80;1.83;;;;;;;;;;5027869;28;20041;-72
2022/11/18 02:41:06;;;;;;;4.82;2.03;;;;;;;;;;5005459;28;20080;-71
2022/11/18 02:43:32;;;;;;;2.65;1.33;;;;;;;;;;5031586;28;20089;-72
2022/11/18 02:46:00;;;;;;;4.03;1.83;;;;;;;;;;5031861;28;20049;-71
2022/11/18 02:48:29;;;;;;;3.72;1.20;;;;;;;;;;5031436;28;20085;-72
2022/11/18 02:50:57;;;;;;;3.58;1.25;;;;;;;;;;5031380;28;20085;-72
2022/11/18 02:53:24;;;;;;;4.72;1.25;;;;;;;;;;5031734;28;20053;-71
2022/11/18 02:55:51;;;;;;;4.63;1.15;;;;;;;;;;5031661;28;20188;-72
2022/11/18 02:58:19;;;;;;;3.97;0.77;;;;;;;;;;5030263;28;20053;-72
2022/11/18 03:00:52;;;;;;;3.22;0.75;;;;;;;;;;5031525;28;20140;-72
2022/11/18 03:03:28;;;;;;;4.50;0.77;;;;;;;;;;5031618;28;20153;-72
2022/11/18 03:06:05;;;;;;;3.30;0.80;;;;;;;;;;5031516;28;20378;-72
2022/11/18 03:08:35;;;;;;;4.55;1.17;;;;;;;;;;5031526;28;20104;-72
2022/11/18 03:11:09;;;;;;;2.97;0.82;;;;;;;;;;5031549;28;20446;-72
2022/11/18 03:13:51;;;;;;;2.97;0.70;;;;;;;;;;5031590;28;20045;-72
2022/11/18 03:16:21;;;;;;;5.32;1.10;;;;;;;;;;5031184;28;20132;-72
2022/11/18 03:19:14;;;;;;;2.47;0.80;;;;;;;;;;5031244;28;20404;-72
2022/11/18 03:21:46;;;;;;;3.63;0.70;;;;;;;;;;5030038;28;20050;-72
2022/11/18 03:24:15;;;;;;;4.55;0.80;;;;;;;;;;5031137;28;20080;-72
2022/11/18 03:26:44;;;;;;;5.35;1.02;;;;;;;;;;5031181;28;20045;-72
2022/11/18 03:29:20;;;;;;;6.30;0.77;;;;;;;;;;5031434;28;20076;-72
2022/11/18 03:31:51;;;;;;;4.60;0.80;;;;;;;;;;5029971;28;20445;-72
2022/11/18 03:34:27;;;;;;;5.47;1.15;;;;;;;;;;5030992;28;20133;-72
2022/11/18 03:36:56;;;;;;;3.53;0.90;;;;;;;;;;5030893;28;20107;-72
2022/11/18 03:39:28;;;;;;;4.20;0.80;;;;;;;;;;5030144;28;20115;-72
2022/11/18 03:41:57;;;;;;;4.45;0.90;;;;;;;;;;5031087;28;20045;-72
2022/11/18 03:44:26;;;;;;;4.22;0.98;;;;;;;;;;5033638;28;20049;-72
2022/11/18 03:46:55;;;;;;;2.28;0.90;;;;;;;;;;5034407;28;20045;-72
2022/11/18 03:49:32;;;;;;;5.75;1.02;;;;;;;;;;5035011;28;20581;-72
2022/11/18 03:52:04;;;;;;;5.10;1.13;;;;;;;;;;5034402;28;20088;-72
2022/11/18 03:54:32;;;;;;;3.72;1.15;;;;;;;;;;5034756;28;20077;-72
2022/11/18 03:57:01;;;;;;;5.20;1.10;;;;;;;;;;5034595;28;20128;-72
2022/11/18 03:59:34;;;;;;;7.18;1.13;;;;;;;;;;5034356;28;20053;-72
2022/11/18 04:02:07;;;;;;;3.65;1.13;;;;;;;;;;5034330;28;20144;-72
2022/11/18 04:04:34;;;;;;;4.35;0.90;;;;;;;;;;5034689;28;20061;-72
2022/11/18 04:07:21;;;;;;;2.13;1.05;;;;;;;;;;5034101;28;20137;-72
2022/11/18 04:09:52;;;;;;;3.45;1.25;;;;;;;;;;5022374;28;20488;-72
2022/11/18 04:12:19;;;;;;;7.55;1.27;;;;;;;;;;5034368;28;20059;-72
2022/11/18 04:14:48;;;;;;;4.35;1.33;;;;;;;;;;5034069;28;20141;-72
2022/11/18 04:17:16;;;;;;;4.18;1.55;;;;;;;;;;5034580;28;20053;-72
2022/11/18 04:19:42;;;;;;;5.30;1.33;;;;;;;;;;5034050;28;20128;-72
2022/11/18 04:22:09;;;;;;;4.80;1.70;;;;;;;;;;5032974;28;20092;-72
2022/11/18 04:24:35;;;;;;;6.25;1.80;;;;;;;;;;5033928;28;20489;-72
2022/11/18 04:27:03;;;;;;;9.63;2.35;;;;;;;;;;5034074;28;20763;-72
2022/11/18 04:29:30;;;;;;;7.13;1.80;;;;;;;;;;5034000;28;20500;-71
2022/11/18 04:31:57;;;;;;;5.80;1.57;;;;;;;;;;5034020;28;20285;-72
2022/11/18 04:34:23;;;;;;;9.88;1.88;;;;;;;;;;5033824;28;20128;-71
2022/11/18 04:36:49;;;;;;;8.80;1.70;;;;;;;;;;5033399;28;20536;-72
2022/11/18 04:39:17;;;;;;;5.78;1.70;;;;;;;;;;5033537;28;20053;-72
2022/11/18 04:41:57;;;;;;;3.00;1.40;;;;;;;;;;5033922;28;20053;-72
2022/11/18 04:44:27;;;;;;;5.72;1.92;;;;;;;;;;5033829;28;20057;-72
2022/11/18 04:46:54;;;;;;;9.05;1.90;;;;;;;;;;5033626;28;20052;-72
2022/11/18 04:49:21;;;;;;;7.20;2.05;;;;;;;;;;5033380;28;20092;-72
2022/11/18 04:51:48;;;;;;;5.07;1.83;;;;;;;;;;5033395;28;20477;-72
2022/11/18 04:54:15;;;;;;;9.40;1.92;;;;;;;;;;5033190;28;20369;-72
2022/11/18 04:56:42;;;;;;;7.05;2.05;;;;;;;;;;5033435;28;20053;-72
2022/11/18 04:59:16;;;;;;;6.05;1.75;;;;;;;;;;5033367;28;20053;-72
2022/11/18 05:01:43;;;;;;;7.80;1.70;;;;;;;;;;5032197;28;20161;-72
2022/11/18 05:04:13;;;;;;;6.95;1.90;;;;;;;;;;5032892;28;20505;-72
2022/11/18 05:06:39;;;;;;;8.85;1.70;;;;;;;;;;5033281;28;20473;-71
2022/11/18 05:09:06;;;;;;;8.52;1.70;;;;;;;;;;5032932;28;20132;-72
2022/11/18 05:14:17;;;;;;;8.82;2.28;;;;;;;;;;5032862;28;20041;-72
2022/11/18 05:16:44;;;;;;;7.88;2.30;;;;;;;;;;5032837;28;20285;-72
2022/11/18 05:19:10;;;;;;;11.95;2.30;;;;;;;;;;5033029;28;20072;-72
2022/11/18 05:21:37;;;;;;;5.85;1.80;;;;;;;;;;5033010;28;20073;-72
2022/11/18 05:24:03;;;;;;;6.55;2.05;;;;;;;;;;5032833;28;20136;-72
2022/11/18 05:26:30;;;;;;;7.45;1.67;;;;;;;;;;5032848;28;20132;-72
2022/11/18 05:28:57;;;;;;;5.88;1.90;;;;;;;;;;5033242;28;20046;-72
2022/11/18 05:31:23;;;;;;;8.38;2.22;;;;;;;;;;5032770;28;20045;-71
2022/11/18 05:33:49;;;;;;;10.63;2.17;;;;;;;;;;5032438;28;20077;-72
2022/11/18 05:36:17;;;;;;;9.40;2.20;;;;;;;;;;5032331;28;20149;-71
2022/11/18 05:38:44;;;;;;;8.88;2.30;;;;;;;;;;5032450;28;20045;-72
2022/11/18 05:43:09;;;;;;;6.68;2.10;;;;;;;;;;5032682;28;20469;-71
2022/11/18 05:43:57;;;;;;;4.72;1.65;;;;;;;;;;5032366;28;20132;-71
2022/11/18 05:46:23;;;;;;;8.35;2.20;;;;;;;;;;5032575;28;20081;-69
2022/11/18 05:48:50;;;;;;;10.23;2.13;;;;;;;;;;5032349;28;20072;-69
2022/11/18 05:51:16;;;;;;;5.80;1.83;;;;;;;;;;5032330;28;20071;-70
2022/11/18 05:53:43;;;;;;;5.28;1.60;;;;;;;;;;5032433;28;20155;-70
2022/11/18 05:56:28;;;;;;;7.65;1.63;;;;;;;;;;5032113;28;20077;-70
2022/11/18 05:58:54;;;;;;;6.47;1.90;;;;;;;;;;5032277;28;20096;-72
2022/11/18 06:01:36;;;;;;;5.03;2.10;;;;;;;;;;5032250;28;20405;-72
2022/11/18 06:04:06;;;;;;;14.32;2.30;;;;;;;;;;5031862;28;20053;-71
2022/11/18 06:06:32;;;;;;;9.00;2.25;;;;;;;;;;5031397;28;20140;-72
2022/11/18 06:09:03;;;;;;;6.03;1.90;;;;;;;;;;5032098;28;20053;-72
2022/11/18 06:11:32;;;;;;;6.45;2.35;;;;;;;;;;5031957;28;20152;-72
2022/11/18 06:14:01;;;;;;;5.03;2.03;;;;;;;;;;5031923;28;20053;-72
2022/11/18 06:16:28;;;;;;;6.78;2.13;;;;;;;;;;5031943;28;20128;-72
2022/11/18 06:18:55;;;;;;;9.00;2.25;;;;;;;;;;5031835;28;20508;-72
2022/11/18 06:21:21;;;;;;;7.53;2.38;;;;;;;;;;5031572;28;20136;-71
2022/11/18 06:23:48;;;;;;;5.18;1.80;;;;;;;;;;5032015;28;20085;-72
2022/11/18 06:26:15;;;;;;;7.13;2.35;;;;;;;;;;5031830;28;20057;-72
2022/11/18 06:28:43;;;;;;;7.47;2.20;;;;;;;;;;5031983;28;20079;-72
2022/11/18 06:31:10;;;;;;;5.53;2.30;;;;;;;;;;5030476;28;20052;-72
2022/11/18 06:33:36;;;;;;;10.40;2.65;;;;;;;;;;5031514;28;20051;-72
2022/11/18 06:36:02;;;;;;;7.70;2.08;;;;;;;;;;5020999;28;20158;-72
2022/11/18 06:38:29;;;;;;;7.78;2.58;;;;;;;;;;5028704;28;20136;-72
2022/11/18 06:40:59;;;;;;;8.63;2.17;;;;;;;;;;5031539;28;20405;-72
2022/11/18 06:43:37;;;;;;;8.00;1.70;;;;;;;;;;5031508;28;20133;-72
2022/11/18 06:48:51;;;;;;;5.53;2.00;;;;;;;;;;5031612;28;20592;-72
2022/11/18 06:51:17;;;;;;;5.85;1.85;;;;;;;;;;5031654;28;20132;-71
2022/11/18 06:53:44;;;;;;;3.30;2.00;;;;;;;;;;5030439;28;20049;-72
2022/11/18 06:56:11;;;;;;;6.05;1.88;;;;;;;;;;5031577;28;20552;-69
2022/11/18 06:58:38;;;;;;;6.30;1.58;;;;;;;;;;5031443;28;20056;-70
2022/11/18 07:01:23;;;;;;;4.35;1.60;;;;;;;;;;5031688;28;20073;-72
2022/11/18 07:03:50;;;;;;;3.78;1.50;;;;;;;;;;5031691;28;20060;-72
2022/11/18 07:06:21;;;;;;;4.93;1.83;;;;;;;;;;5031293;28;20049;-72
2022/11/18 07:08:48;;;;;;;6.63;1.77;;;;;;;;;;5031292;28;20404;-72
2022/11/18 07:11:18;;;;;;;5.67;1.70;;;;;;;;;;5031311;28;20256;-72
2022/11/18 07:13:45;;;;;;;5.40;2.47;;;;;;;;;;5031810;28;20056;-72
2022/11/18 07:16:13;;;;;;;8.60;3.42;;;;;;;;;;5029972;28;20552;-72
2022/11/18 07:18:40;;;;;;;8.77;2.83;;;;;;;;;;5032767;28;20132;-72
2022/11/18 07:21:08;;;;;;;7.63;2.55;;;;;;;;;;5034408;28;20081;-71
2022/11/18 07:23:34;;;;;;;6.85;2.85;;;;;;;;;;5034574;28;20041;-71
2022/11/18 07:26:01;;;;;;;6.30;2.83;;;;;;;;;;5034647;28;20045;-72
2022/11/18 07:28:28;;;;;;;7.90;2.40;;;;;;;;;;5034504;28;20045;-71
2022/11/18 07:31:01;;;;;;;4.68;2.08;;;;;;;;;;5034651;28;20125;-71
2022/11/18 07:33:27;;;;;;;5.63;2.05;;;;;;;;;;5034678;28;20095;-71
2022/11/18 07:35:54;;;;;;;4.85;1.77;;;;;;;;;;5033457;28;20045;-71
2022/11/18 07:38:20;;;;;;;6.30;1.75;;;;;;;;;;5034687;28;20046;-71
2022/11/18 07:40:47;;;;;;;5.10;1.83;;;;;;;;;;5027489;28;20056;-72
2022/11/18 07:43:13;;;;;;;5.75;1.80;;;;;;;;;;5014969;28;20090;-72
2022/11/18 07:45:39;;;;;;;4.68;1.33;;;;;;;;;;5016122;28;20165;-73
2022/11/18 07:48:06;;;;;;;4.13;1.52;;;;;;;;;;5014926;28;20061;-71
2022/11/18 07:50:32;;;;;;;6.35;1.67;;;;;;;;;;5017660;28;20053;-72
2022/11/18 07:52:59;;;;;;;4.57;1.58;;;;;;;;;;5034398;28;20096;-72
2022/11/18 07:55:25;;;;;;;4.95;1.77;;;;;;;;;;5027008;28;20084;-70
2022/11/18 07:57:57;;;;;;;5.47;1.55;;;;;;;;;;5024473;28;20042;-72
2022/11/18 08:00:23;;;;;;;4.95;1.50;;;;;;;;;;5018620;28;20053;-71
2022/11/18 08:02:50;;;;;;;4.53;1.60;;;;;;;;;;5014097;28;20164;-68
2022/11/18 08:05:16;;;;;;;4.15;1.40;;;;;;;;;;5019058;28;20061;-69
2022/11/18 08:07:43;;;;;;;4.30;1.08;;;;;;;;;;5014233;28;20122;-71
2022/11/18 08:10:10;;;;;;;4.18;1.70;;;;;;;;;;5023404;28;20099;-71
2022/11/18 08:12:36;;;;;;;6.93;1.42;;;;;;;;;;5025650;28;20081;-71
2022/11/18 08:15:03;;;;;;;2.42;1.02;;;;;;;;;;5028830;28;20130;-73
2022/11/18 08:17:29;;;;;;;17.13;6.18;;;;;;;;;;5026915;28;20054;-72
2022/11/18 08:19:56;;;;;;;24.02;12.35;;;;;;;;;;5027032;28;20497;-73
2022/11/18 08:22:22;;;;;;;15.85;8.07;;;;;;;;;;5019854;28;20129;-73
2022/11/18 08:24:48;;;;;;;30.63;15.95;;;;;;;;;;5021366;28;20054;-73
2022/11/18 08:27:15;;;;;;;29.30;13.45;;;;;;;;;;5022050;28;20498;-73
2022/11/18 08:29:41;;;;;;;14.85;9.52;;;;;;;;;;5017176;28;20497;-76
2022/11/18 08:32:08;;;;;;;8.75;5.55;;;;;;;;;;5019277;28;20500;-73
2022/11/18 08:34:34;;;;;;;10.02;6.10;;;;;;;;;;5032166;28;20045;-74
2022/11/18 08:37:01;;;;;;;15.82;9.75;;;;;;;;;;5020798;28;20089;-74
2022/11/18 08:39:27;;;;;;;13.27;8.63;;;;;;;;;;5033919;28;20060;-74
2022/11/18 08:41:56;;;;;;;8.35;4.70;;;;;;;;;;5033879;28;20092;-73
2022/11/18 08:44:23;;;;;;;8.13;5.22;;;;;;;;;;5027349;28;20049;-74
2022/11/18 08:46:49;;;;;;;24.92;16.80;;;;;;;;;;5024593;28;20053;-74
2022/11/18 08:49:16;;;;;;;19.70;13.57;;;;;;;;;;5033303;28;20056;-74
2022/11/18 08:51:42;;;;;;;18.52;11.32;;;;;;;;;;5033743;28;20505;-74
2022/11/18 08:54:09;;;;;;;12.57;8.23;;;;;;;;;;5031979;28;20092;-74
2022/11/18 08:56:35;;;;;;;13.73;8.27;;;;;;;;;;5030172;28;20077;-73
2022/11/18 08:59:03;;;;;;;7.97;5.75;;;;;;;;;;5032580;28;20064;-75
2022/11/18 09:01:29;;;;;;;14.82;11.73;;;;;;;;;;5023329;28;20046;-73
2022/11/18 09:03:56;;;;;;;11.68;8.35;;;;;;;;;;5015910;28;20049;-72
2022/11/18 09:06:25;;;;;;;19.80;15.70;;;;;;;;;;5032838;28;20053;-75
2022/11/18 09:08:52;;;;;;;10.32;7.35;;;;;;;;;;5031085;28;20079;-74
2022/11/18 09:11:20;;;;;;;8.82;7.28;;;;;;;;;;5032416;28;20096;-74
2022/11/18 09:13:47;;;;;;;6.50;4.00;;;;;;;;;;5032524;28;20081;-74
2022/11/18 09:16:34;;;;;;;3.20;1.80;;;;;;;;;;5017933;28;20075;-74
2022/11/18 09:19:00;;;;;;;5.80;3.47;;;;;;;;;;5031139;28;20421;-74
2022/11/18 09:21:46;;;;;;;4.07;1.67;;;;;;;;;;5032452;28;20057;-74
2022/11/18 09:24:13;;;;;;;5.15;1.60;;;;;;;;;;5032213;28;20081;-75
2022/11/18 09:26:40;;;;;;;2.03;1.27;;;;;;;;;;5032097;28;20053;-74
2022/11/18 09:29:07;;;;;;;4.47;1.73;;;;;;;;;;5032241;28;20045;-74
2022/11/18 09:31:33;;;;;;;;;;;;;;;;;;5030026;28;20049;-75
2022/11/18 09:34:00;;;;;;;3.43;3.13;;;;;;;;;;5012279;28;20423;-75
2022/11/18 09:36:26;;;;;;;3.38;1.42;;;;;;;;;;5025529;28;20086;-74
2022/11/18 09:38:53;;;;;;;3.53;1.50;;;;;;;;;;5012268;28;20077;-74
2022/11/18 09:41:38;;;;;;;3.08;0.95;;;;;;;;;;5024696;28;20052;-73
2022/11/18 09:44:16;;;;;;;3.03;1.30;;;;;;;;;;5018684;28;20136;-73
2022/11/18 09:47:01;;;;;;;6.53;2.30;;;;;;;;;;5031116;28;20072;-74
2022/11/18 09:49:31;;;;;;;3.20;1.73;;;;;;;;;;5031757;28;20049;-74
2022/11/18 09:52:01;;;;;;;3.17;1.77;;;;;;;;;;5031655;28;20085;-75
2022/11/18 09:54:30;;;;;;;4.75;1.77;;;;;;;;;;5031878;28;20092;-73
2022/11/18 09:56:56;;;;;;;3.40;1.45;;;;;;;;;;5031849;28;20052;-73
2022/11/18 09:59:26;;;;;;;5.72;1.70;;;;;;;;;;5031722;28;20053;-74
2022/11/18 10:01:55;;;;;;;4.10;1.80;;;;;;;;;;5018037;28;20077;-75
2022/11/18 10:04:22;;;;;;;3.45;1.63;;;;;;;;;;5031328;28;20049;-75
2022/11/18 10:06:49;;;;;;;3.47;1.60;;;;;;;;;;5030306;28;20083;-75
2022/11/18 10:09:25;;;;;;;4.75;2.10;;;;;;;;;;5031308;28;20041;-75
2022/11/18 10:11:54;;;;;;;3.30;1.60;;;;;;;;;;5031738;28;20057;-75
2022/11/18 10:14:20;;;;;;;2.17;1.25;;;;;;;;;;5031272;28;20128;-75
2022/11/18 10:17:02;;;;;;;4.50;1.17;;;;;;;;;;5029410;28;20766;-75
2022/11/18 10:19:47;;;;;;;2.00;1.10;;;;;;;;;;5031224;28;20454;-74
2022/11/18 10:22:20;;;;;;;4.25;0.88;;;;;;;;;;5031638;28;20068;-75
2022/11/18 10:24:52;;;;;;;2.08;0.80;;;;;;;;;;5031521;28;20409;-75
2022/11/18 10:27:19;;;;;;;2.78;0.75;;;;;;;;;;5031132;28;20137;-73
2022/11/18 10:29:48;;;;;;;1.77;0.70;;;;;;;;;;5031327;28;20083;-74
2022/11/18 10:32:15;;;;;;;1.92;0.60;;;;;;;;;;5028895;28;20083;-73
2022/11/18 10:34:42;;;;;;;;;;;;;;;;;;5011969;28;20413;-74
2022/11/18 10:37:36;;;;;;;2.92;0.80;;;;;;;;;;5013387;28;19968;-74
2022/11/18 10:40:24;;;;;;;1.63;0.47;;;;;;;;;;5030958;28;20560;-78
2022/11/18 10:42:50;;;;;;;2.00;0.60;;;;;;;;;;5031024;28;20505;-75
2022/11/18 10:45:19;;;;;;;2.47;0.73;;;;;;;;;;5030645;28;20107;-74
2022/11/18 10:47:56;;;;;;;4.57;0.57;;;;;;;;;;5018215;28;20140;-71
2022/11/18 10:50:23;;;;;;;;;;;;;;;;;;5031413;28;20095;-72
2022/11/18 10:52:51;;;;;;;2.95;0.90;;;;;;;;;;5033158;28;19976;-74
2022/11/18 10:55:22;;;;;;;1.92;1.30;;;;;;;;;;5034981;28;20173;-76
2022/11/18 10:57:50;;;;;;;6.57;3.47;;;;;;;;;;5034860;28;20063;-73
2022/11/18 11:00:33;;;;;;;5.13;2.40;;;;;;;;;;5035185;28;20108;-75
2022/11/18 11:03:00;;;;;;;5.05;1.77;;;;;;;;;;5034823;28;20049;-72
2022/11/18 11:05:26;;;;;;;4.25;1.80;;;;;;;;;;5033572;28;20096;-73
2022/11/18 11:08:04;;;;;;;6.72;4.05;;;;;;;;;;5020386;28;20542;-70
2022/11/18 11:10:54;;;;;;;6.10;1.80;;;;;;;;;;5025296;28;20064;-75
2022/11/18 11:13:23;;;;;;;4.00;1.77;;;;;;;;;;5033643;28;20383;-76
2022/11/18 11:15:51;;;;;;;5.28;2.28;;;;;;;;;;5034808;28;20080;-72
2022/11/18 11:21:09;;;;;;;5.68;3.63;;;;;;;;;;5034515;28;20049;-72
2022/11/18 11:23:36;;;;;;;7.63;5.40;;;;;;;;;;5034726;28;20421;-74
2022/11/18 11:26:07;;;;;;;5.35;1.52;;;;;;;;;;5034787;28;20059;-71
2022/11/18 11:29:02;;;;;;;3.63;1.33;;;;;;;;;;5026452;28;20046;-73
2022/11/18 11:31:39;;;;;;;3.00;1.27;;;;;;;;;;5014798;28;20050;-74
2022/11/18 11:34:19;;;;;;;3.35;1.40;;;;;;;;;;5034580;28;20049;-76
2022/11/18 11:37:08;;;;;;;5.10;1.80;;;;;;;;;;5022963;28;20046;-73
2022/11/18 11:39:37;;;;;;;7.55;2.00;;;;;;;;;;5020678;28;20489;-73
2022/11/18 11:42:08;;;;;;;6.72;2.15;;;;;;;;;;5022673;28;20054;-73
2022/11/18 11:44:49;;;;;;;5.05;1.25;;;;;;;;;;5032539;28;20053;-74
2022/11/18 11:50:20;;;;;;;13.27;5.40;;;;;;;;;;5034155;28;20049;-74
2022/11/18 11:53:05;;;;;;;10.75;3.80;;;;;;;;;;5030868;28;20041;-73
2022/11/18 11:55:44;;;;;;;19.45;7.93;;;;;;;;;;5025949;28;20048;-72
2022/11/18 11:58:14;;;;;;;9.30;3.92;;;;;;;;;;5034229;28;20053;-76
2022/11/18 12:00:44;;;;;;;13.98;3.70;;;;;;;;;;5032770;28;20049;-76
2022/11/18 12:03:30;;;;;;;12.88;4.82;;;;;;;;;;5023333;28;20051;-74
2022/11/18 12:05:57;;;;;;;11.27;4.17;;;;;;;;;;5024930;28;20050;-74
2022/11/18 12:08:25;;;;;;;27.38;10.63;;;;;;;;;;5028804;28;20299;-74
2022/11/18 12:11:10;;;;;;;20.95;8.38;;;;;;;;;;5025563;28;20049;-75
2022/11/18 12:13:58;;;;;;;15.55;7.13;;;;;;;;;;5033961;28;20124;-75
2022/11/18 12:16:36;;;;;;;25.23;9.55;;;;;;;;;;5031749;28;20045;-75
2022/11/18 12:19:02;;;;;;;;;;;;;;;;;;5032770;28;20046;-76
2022/11/18 12:21:41;;;;;;;20.67;8.23;;;;;;;;;;5023916;28;20376;-75
2022/11/18 12:24:29;;;;;;;17.85;7.68;;;;;;;;;;5023546;28;20069;-74
2022/11/18 12:26:58;;;;;;;19.40;8.60;;;;;;;;;;5009453;28;20050;-78
2022/11/18 12:29:26;;;;;;;14.05;6.70;;;;;;;;;;5010608;28;20048;-74
2022/11/18 12:31:57;;;;;;;7.55;2.10;;;;;;;;;;5013686;28;20042;-74
2022/11/18 12:34:40;;;;;;;11.77;5.03;;;;;;;;;;5012437;28;20068;-73
2022/11/18 12:37:21;;;;;;;9.20;1.95;;;;;;;;;;5013484;28;20145;-74
2022/11/18 12:39:58;;;;;;;9.05;3.97;;;;;;;;;;5013749;28;20042;-76
2022/11/18 12:45:35;;;;;;;18.88;8.35;;;;;;;;;;5002692;28;20085;-74
2022/11/18 12:48:02;;;;;;;30.75;16.15;;;;;;;;;;5013399;28;20375;-74
2022/11/18 12:50:48;;;;;;;10.40;4.20;;;;;;;;;;5013489;28;20128;-74
2022/11/18 12:53:33;;;;;;;16.58;9.50;;;;;;;;;;5013664;28;20045;-72
2022/11/18 12:56:08;;;;;;;8.85;3.42;;;;;;;;;;5012077;28;20520;-73
2022/11/18 12:58:35;;;;;;;11.73;3.60;;;;;;;;;;5007198;28;20069;-76
2022/11/18 13:01:06;;;;;;;9.18;3.70;;;;;;;;;;5030253;28;20045;-76
2022/11/18 13:03:33;;;;;;;9.55;2.00;;;;;;;;;;5033281;28;20046;-76
2022/11/18 13:06:05;;;;;;;8.55;2.25;;;;;;;;;;5032693;28;20051;-76
2022/11/18 13:08:32;;;;;;;6.22;2.08;;;;;;;;;;5032387;28;20050;-77
2022/11/18 13:19:25;;;;;;;13.52;6.45;;;;;;;;;;5032347;28;20041;-79
2022/11/18 13:24:47;;;;;;;7.35;2.40;;;;;;;;;;5031387;28;20053;-78
2022/11/18 13:27:24;;;;;;;11.38;4.82;;;;;;;;;;5014870;28;20060;-77
2022/11/18 13:29:55;;;;;;;9.32;3.53;;;;;;;;;;5024047;28;20054;-77
2022/11/18 13:32:23;;;;;;;6.85;3.17;;;;;;;;;;5030498;28;20047;-83
2022/11/18 13:34:51;;;;;;;5.45;2.13;;;;;;;;;;5032278;28;20045;-79
2022/11/18 13:37:19;;;;;;;5.28;2.35;;;;;;;;;;5032291;28;20053;-79
2022/11/18 13:39:47;;;;;;;5.18;2.08;;;;;;;;;;5032218;28;20129;-79
2022/11/18 13:42:16;;;;;;;6.65;3.20;;;;;;;;;;5032126;28;20060;-80
2022/11/18 13:44:50;;;;;;;7.47;3.33;;;;;;;;;;5031256;28;20061;-79
2022/11/18 13:47:21;;;;;;;7.82;3.28;;;;;;;;;;5032245;28;20057;-79
2022/11/18 13:50:03;;;;;;;6.30;2.55;;;;;;;;;;5024282;28;20056;-79
2022/11/18 13:52:35;;;;;;;8.75;3.65;;;;;;;;;;5015204;28;20067;-78
2022/11/18 13:55:05;;;;;;;3.75;1.20;;;;;;;;;;5032158;28;20053;-79
2022/11/18 13:57:33;;;;;;;7.13;2.85;;;;;;;;;;5020506;28;20457;-80
2022/11/18 13:59:59;;;;;;;;;;;;;;;;;;5012480;28;20050;-80
2022/11/18 14:02:25;;;;;;;4.10;1.48;;;;;;;;;;5021808;28;19932;-80
2022/11/18 14:04:56;;;;;;;7.50;2.50;;;;;;;;;;5031618;28;20046;-81
2022/11/18 14:07:28;;;;;;;6.28;2.00;;;;;;;;;;5032044;28;20045;-79
2022/11/18 14:09:57;;;;;;;7.22;3.22;;;;;;;;;;5031654;28;20125;-80
2022/11/18 14:12:27;;;;;;;5.90;1.90;;;;;;;;;;5031796;28;20072;-78
2022/11/18 14:15:11;;;;;;;5.25;1.48;;;;;;;;;;5031756;28;20064;-80
2022/11/18 14:17:48;;;;;;;7.10;1.48;;;;;;;;;;5031807;28;20124;-80
2022/11/18 14:20:15;;;;;;;6.17;1.30;;;;;;;;;;5021115;28;20053;-81
2022/11/18 14:22:42;;;;;;;8.85;1.38;;;;;;;;;;5031857;28;20049;-80
2022/11/18 14:25:16;;;;;;;4.43;1.33;;;;;;;;;;5030347;28;20057;-81
2022/11/18 14:27:45;;;;;;;5.68;1.50;;;;;;;;;;5030747;28;20055;-79
2022/11/18 14:30:23;;;;;;;4.88;1.13;;;;;;;;;;5026292;28;20046;-80
2022/11/18 14:33:09;;;;;;;6.00;1.70;;;;;;;;;;5009683;28;20049;-81
2022/11/18 14:35:37;;;;;;;4.33;1.20;;;;;;;;;;5011820;28;20052;-80
2022/11/18 14:38:03;;;;;;;;;;;;;;;;;;5011915;28;20120;-80
2022/11/18 14:40:54;;;;;;;5.32;1.13;;;;;;;;;;5011616;28;19925;-79
2022/11/18 14:43:20;;;;;;;6.22;1.20;;;;;;;;;;5023277;28;20042;-83
2022/11/18 14:45:47;;;;;;;4.77;1.50;;;;;;;;;;5021734;28;20132;-79
2022/11/18 14:48:16;;;;;;;5.13;1.40;;;;;;;;;;5030817;28;20329;-80
2022/11/18 14:50:42;;;;;;;6.05;1.70;;;;;;;;;;5030031;28;20049;-80
2022/11/18 14:53:11;;;;;;;5.53;1.80;;;;;;;;;;5031106;28;20057;-80
2022/11/18 14:55:37;;;;;;;5.88;2.03;;;;;;;;;;5028908;28;20088;-82
2022/11/18 14:58:03;;;;;;;5.27;2.20;;;;;;;;;;5011259;28;20410;-78
2022/11/18 15:00:30;;;;;;;6.88;1.50;;;;;;;;;;5014505;28;20512;-79
2022/11/18 15:02:56;;;;;;;6.27;1.80;;;;;;;;;;5026752;28;20077;-78
2022/11/18 15:05:23;;;;;;;5.43;1.35;;;;;;;;;;5016577;28;20077;-79
2022/11/18 15:07:49;;;;;;;5.00;1.20;;;;;;;;;;5020975;28;20050;-78
2022/11/18 15:10:16;;;;;;;4.63;1.20;;;;;;;;;;5025628;28;20060;-78
2022/11/18 15:12:42;;;;;;;5.53;1.48;;;;;;;;;;5018782;28;20049;-78
2022/11/18 15:15:09;;;;;;;4.68;1.20;;;;;;;;;;5030965;28;20045;-78
2022/11/18 15:17:35;;;;;;;4.50;1.30;;;;;;;;;;5029487;28;20048;-78
2022/11/18 15:20:03;;;;;;;6.13;1.35;;;;;;;;;;5030674;28;20053;-78
2022/11/18 15:22:29;;;;;;;3.88;1.00;;;;;;;;;;5029438;28;20050;-78
2022/11/18 15:24:55;;;;;;;5.43;1.05;;;;;;;;;;5030599;28;20055;-75
2022/11/18 15:27:22;;;;;;;4.35;1.10;;;;;;;;;;5030873;28;20072;-75
2022/11/18 15:29:49;;;;;;;6.65;1.20;;;;;;;;;;5016592;28;20054;-78